sensor_id;sensor_type;location;lat;lon;timestamp;P1;durP1;ratioP1;P2;durP2;ratioP2
14734;SDS011;7458;49.002;8.472;2023-12-22T00:00:08;3.97;;;1.88;;
14734;SDS011;7458;49.002;8.472;2023-12-22T00:02:35;5.32;;;2.47;;
14734;SDS011;7458;49.002;8.472;2023-12-22T00:05:01;3.88;;;2.40;;
14734;SDS011;7458;49.002;8.472;2023-12-22T00:07:27;14.90;;;3.22;;
14734;SDS011;7458;49.002;8.472;2023-12-22T00:09:54;4.93;;;3.92;;
14734;SDS011;7458;49.002;8.472;2023-12-22T00:12:20;5.65;;;2.08;;
14734;SDS011;7458;49.002;8.472;2023-12-22T00:14:46;5.80;;;2.90;;
14734;SDS011;7458;49.002;8.472;2023-12-22T00:17:12;4.57;;;2.22;;
14734;SDS011;7458;49.002;8.472;2023-12-22T00:19:38;7.93;;;3.20;;
14734;SDS011;7458;49.002;8.472;2023-12-22T00:22:04;3.85;;;2.40;;
14734;SDS011;7458;49.002;8.472;2023-12-22T00:24:30;4.55;;;2.40;;
14734;SDS011;7458;49.002;8.472;2023-12-22T00:26:57;6.40;;;3.40;;
14734;SDS011;7458;49.002;8.472;2023-12-22T00:29:23;9.27;;;4.07;;
14734;SDS011;7458;49.002;8.472;2023-12-22T00:31:50;8.48;;;2.67;;
14734;SDS011;7458;49.002;8.472;2023-12-22T00:34:16;8.20;;;3.33;;
14734;SDS011;7458;49.002;8.472;2023-12-22T00:36:44;8.02;;;3.53;;
14734;SDS011;7458;49.002;8.472;2023-12-22T00:39:10;3.15;;;1.60;;
14734;SDS011;7458;49.002;8.472;2023-12-22T00:41:36;8.20;;;2.80;;
14734;SDS011;7458;49.002;8.472;2023-12-22T00:44:02;4.50;;;2.70;;
14734;SDS011;7458;49.002;8.472;2023-12-22T00:46:28;4.00;;;2.70;;
14734;SDS011;7458;49.002;8.472;2023-12-22T00:48:55;3.05;;;2.13;;
14734;SDS011;7458;49.002;8.472;2023-12-22T00:51:21;9.05;;;1.83;;
14734;SDS011;7458;49.002;8.472;2023-12-22T00:53:47;4.38;;;2.13;;
14734;SDS011;7458;49.002;8.472;2023-12-22T00:56:13;7.88;;;2.50;;
14734;SDS011;7458;49.002;8.472;2023-12-22T00:58:39;6.95;;;1.95;;
14734;SDS011;7458;49.002;8.472;2023-12-22T01:01:06;9.55;;;2.55;;
14734;SDS011;7458;49.002;8.472;2023-12-22T01:03:32;7.57;;;2.17;;
14734;SDS011;7458;49.002;8.472;2023-12-22T01:05:58;4.40;;;2.83;;
14734;SDS011;7458;49.002;8.472;2023-12-22T01:08:25;5.50;;;2.50;;
14734;SDS011;7458;49.002;8.472;2023-12-22T01:10:51;7.25;;;2.17;;
14734;SDS011;7458;49.002;8.472;2023-12-22T01:13:17;4.68;;;1.73;;
14734;SDS011;7458;49.002;8.472;2023-12-22T01:15:43;5.68;;;1.70;;
14734;SDS011;7458;49.002;8.472;2023-12-22T01:18:10;4.93;;;2.75;;
14734;SDS011;7458;49.002;8.472;2023-12-22T01:20:36;3.85;;;1.52;;
14734;SDS011;7458;49.002;8.472;2023-12-22T01:23:02;7.25;;;2.35;;
14734;SDS011;7458;49.002;8.472;2023-12-22T01:25:28;5.05;;;2.55;;
14734;SDS011;7458;49.002;8.472;2023-12-22T01:27:55;3.65;;;1.35;;
14734;SDS011;7458;49.002;8.472;2023-12-22T01:30:21;4.18;;;2.30;;
14734;SDS011;7458;49.002;8.472;2023-12-22T01:32:47;2.60;;;1.35;;
14734;SDS011;7458;49.002;8.472;2023-12-22T01:35:13;4.72;;;1.58;;
14734;SDS011;7458;49.002;8.472;2023-12-22T01:37:39;2.35;;;1.63;;
14734;SDS011;7458;49.002;8.472;2023-12-22T01:40:06;6.65;;;1.95;;
14734;SDS011;7458;49.002;8.472;2023-12-22T01:42:32;9.35;;;1.83;;
14734;SDS011;7458;49.002;8.472;2023-12-22T01:44:59;3.05;;;1.27;;
14734;SDS011;7458;49.002;8.472;2023-12-22T01:47:25;7.28;;;2.25;;
14734;SDS011;7458;49.002;8.472;2023-12-22T01:49:51;1.48;;;1.00;;
14734;SDS011;7458;49.002;8.472;2023-12-22T01:52:18;4.35;;;1.92;;
14734;SDS011;7458;49.002;8.472;2023-12-22T01:54:44;3.35;;;1.10;;
14734;SDS011;7458;49.002;8.472;2023-12-22T01:57:12;3.35;;;2.10;;
14734;SDS011;7458;49.002;8.472;2023-12-22T01:59:42;4.53;;;1.83;;
14734;SDS011;7458;49.002;8.472;2023-12-22T02:02:09;2.85;;;1.48;;
14734;SDS011;7458;49.002;8.472;2023-12-22T02:04:35;2.80;;;1.08;;
14734;SDS011;7458;49.002;8.472;2023-12-22T02:07:02;4.03;;;1.35;;
14734;SDS011;7458;49.002;8.472;2023-12-22T02:09:30;5.45;;;2.53;;
14734;SDS011;7458;49.002;8.472;2023-12-22T02:11:56;3.88;;;1.42;;
14734;SDS011;7458;49.002;8.472;2023-12-22T02:14:22;3.40;;;2.05;;
14734;SDS011;7458;49.002;8.472;2023-12-22T02:16:52;3.13;;;1.65;;
14734;SDS011;7458;49.002;8.472;2023-12-22T02:22:07;3.08;;;1.27;;
14734;SDS011;7458;49.002;8.472;2023-12-22T02:24:35;4.53;;;1.52;;
14734;SDS011;7458;49.002;8.472;2023-12-22T02:27:06;1.92;;;1.42;;
14734;SDS011;7458;49.002;8.472;2023-12-22T02:29:55;2.25;;;1.65;;
14734;SDS011;7458;49.002;8.472;2023-12-22T02:32:40;1.65;;;1.55;;
14734;SDS011;7458;49.002;8.472;2023-12-22T02:35:10;3.60;;;3.00;;
14734;SDS011;7458;49.002;8.472;2023-12-22T02:37:42;8.73;;;2.58;;
14734;SDS011;7458;49.002;8.472;2023-12-22T02:40:11;4.05;;;1.75;;
14734;SDS011;7458;49.002;8.472;2023-12-22T02:42:37;6.93;;;3.22;;
14734;SDS011;7458;49.002;8.472;2023-12-22T02:45:05;3.50;;;2.05;;
14734;SDS011;7458;49.002;8.472;2023-12-22T02:47:37;4.25;;;2.05;;
14734;SDS011;7458;49.002;8.472;2023-12-22T02:50:04;3.22;;;1.70;;
14734;SDS011;7458;49.002;8.472;2023-12-22T02:52:30;4.47;;;1.98;;
14734;SDS011;7458;49.002;8.472;2023-12-22T02:54:57;2.88;;;1.33;;
14734;SDS011;7458;49.002;8.472;2023-12-22T02:57:23;7.10;;;1.85;;
14734;SDS011;7458;49.002;8.472;2023-12-22T02:59:49;6.32;;;2.88;;
14734;SDS011;7458;49.002;8.472;2023-12-22T03:02:16;4.65;;;1.85;;
14734;SDS011;7458;49.002;8.472;2023-12-22T03:04:42;5.00;;;1.80;;
14734;SDS011;7458;49.002;8.472;2023-12-22T03:07:08;3.67;;;1.75;;
14734;SDS011;7458;49.002;8.472;2023-12-22T03:09:35;7.45;;;2.45;;
14734;SDS011;7458;49.002;8.472;2023-12-22T03:12:01;3.72;;;1.63;;
14734;SDS011;7458;49.002;8.472;2023-12-22T03:14:30;6.60;;;2.88;;
14734;SDS011;7458;49.002;8.472;2023-12-22T03:17:00;5.38;;;2.58;;
14734;SDS011;7458;49.002;8.472;2023-12-22T03:19:27;3.80;;;1.58;;
14734;SDS011;7458;49.002;8.472;2023-12-22T03:21:53;3.40;;;1.73;;
14734;SDS011;7458;49.002;8.472;2023-12-22T03:24:20;5.40;;;2.42;;
14734;SDS011;7458;49.002;8.472;2023-12-22T03:26:47;6.85;;;2.42;;
14734;SDS011;7458;49.002;8.472;2023-12-22T03:29:14;3.03;;;1.45;;
14734;SDS011;7458;49.002;8.472;2023-12-22T03:31:40;2.08;;;1.35;;
14734;SDS011;7458;49.002;8.472;2023-12-22T03:34:06;2.72;;;2.05;;
14734;SDS011;7458;49.002;8.472;2023-12-22T03:36:32;10.25;;;3.00;;
14734;SDS011;7458;49.002;8.472;2023-12-22T03:38:58;12.02;;;2.00;;
14734;SDS011;7458;49.002;8.472;2023-12-22T03:41:24;7.80;;;2.05;;
14734;SDS011;7458;49.002;8.472;2023-12-22T03:43:50;3.20;;;1.63;;
14734;SDS011;7458;49.002;8.472;2023-12-22T03:46:16;3.42;;;1.50;;
14734;SDS011;7458;49.002;8.472;2023-12-22T03:48:43;5.28;;;1.77;;
14734;SDS011;7458;49.002;8.472;2023-12-22T03:51:09;5.35;;;1.83;;
14734;SDS011;7458;49.002;8.472;2023-12-22T03:53:38;10.63;;;2.13;;
14734;SDS011;7458;49.002;8.472;2023-12-22T03:56:04;8.35;;;2.00;;
14734;SDS011;7458;49.002;8.472;2023-12-22T03:58:31;7.72;;;2.67;;
14734;SDS011;7458;49.002;8.472;2023-12-22T04:00:58;3.40;;;2.03;;
14734;SDS011;7458;49.002;8.472;2023-12-22T04:03:24;5.40;;;1.95;;
14734;SDS011;7458;49.002;8.472;2023-12-22T04:05:50;7.07;;;2.58;;
14734;SDS011;7458;49.002;8.472;2023-12-22T04:08:16;6.50;;;1.83;;
14734;SDS011;7458;49.002;8.472;2023-12-22T04:10:42;5.38;;;1.42;;
14734;SDS011;7458;49.002;8.472;2023-12-22T04:13:09;6.78;;;3.10;;
14734;SDS011;7458;49.002;8.472;2023-12-22T04:15:35;10.40;;;4.57;;
14734;SDS011;7458;49.002;8.472;2023-12-22T04:18:02;8.25;;;1.95;;
14734;SDS011;7458;49.002;8.472;2023-12-22T04:20:28;7.32;;;1.27;;
14734;SDS011;7458;49.002;8.472;2023-12-22T04:22:54;6.85;;;2.22;;
14734;SDS011;7458;49.002;8.472;2023-12-22T04:25:20;6.00;;;2.00;;
14734;SDS011;7458;49.002;8.472;2023-12-22T04:27:48;5.47;;;1.98;;
14734;SDS011;7458;49.002;8.472;2023-12-22T04:30:14;6.95;;;2.22;;
14734;SDS011;7458;49.002;8.472;2023-12-22T04:32:41;12.68;;;2.42;;
14734;SDS011;7458;49.002;8.472;2023-12-22T04:35:07;8.48;;;2.85;;
14734;SDS011;7458;49.002;8.472;2023-12-22T04:37:33;4.32;;;3.33;;
14734;SDS011;7458;49.002;8.472;2023-12-22T04:39:59;3.67;;;2.65;;
14734;SDS011;7458;49.002;8.472;2023-12-22T04:42:25;6.80;;;2.55;;
14734;SDS011;7458;49.002;8.472;2023-12-22T04:44:52;6.00;;;2.03;;
14734;SDS011;7458;49.002;8.472;2023-12-22T04:47:18;13.95;;;2.90;;
14734;SDS011;7458;49.002;8.472;2023-12-22T04:49:44;4.38;;;2.25;;
14734;SDS011;7458;49.002;8.472;2023-12-22T04:52:10;4.80;;;2.58;;
14734;SDS011;7458;49.002;8.472;2023-12-22T04:54:37;6.28;;;2.60;;
14734;SDS011;7458;49.002;8.472;2023-12-22T04:57:03;5.50;;;2.05;;
14734;SDS011;7458;49.002;8.472;2023-12-22T04:59:30;5.60;;;2.53;;
14734;SDS011;7458;49.002;8.472;2023-12-22T05:01:57;8.68;;;3.00;;
14734;SDS011;7458;49.002;8.472;2023-12-22T05:04:23;15.75;;;3.72;;
14734;SDS011;7458;49.002;8.472;2023-12-22T05:06:49;7.50;;;2.40;;
14734;SDS011;7458;49.002;8.472;2023-12-22T05:09:16;9.43;;;2.78;;
14734;SDS011;7458;49.002;8.472;2023-12-22T05:11:42;8.00;;;2.90;;
14734;SDS011;7458;49.002;8.472;2023-12-22T05:14:08;12.32;;;3.15;;
14734;SDS011;7458;49.002;8.472;2023-12-22T05:16:35;9.27;;;2.53;;
14734;SDS011;7458;49.002;8.472;2023-12-22T05:19:01;10.02;;;3.95;;
14734;SDS011;7458;49.002;8.472;2023-12-22T05:21:27;2.55;;;2.08;;
14734;SDS011;7458;49.002;8.472;2023-12-22T05:23:53;10.32;;;4.20;;
14734;SDS011;7458;49.002;8.472;2023-12-22T05:26:20;8.68;;;2.53;;
14734;SDS011;7458;49.002;8.472;2023-12-22T05:28:46;7.90;;;3.20;;
14734;SDS011;7458;49.002;8.472;2023-12-22T05:31:14;7.03;;;3.08;;
14734;SDS011;7458;49.002;8.472;2023-12-22T05:33:41;7.18;;;4.05;;
14734;SDS011;7458;49.002;8.472;2023-12-22T05:36:07;9.20;;;3.92;;
14734;SDS011;7458;49.002;8.472;2023-12-22T05:38:37;8.23;;;2.38;;
14734;SDS011;7458;49.002;8.472;2023-12-22T05:41:04;6.95;;;3.28;;
14734;SDS011;7458;49.002;8.472;2023-12-22T05:43:31;7.75;;;2.90;;
14734;SDS011;7458;49.002;8.472;2023-12-22T05:45:58;11.65;;;3.60;;
14734;SDS011;7458;49.002;8.472;2023-12-22T05:48:25;4.57;;;2.45;;
14734;SDS011;7458;49.002;8.472;2023-12-22T05:50:52;6.80;;;3.28;;
14734;SDS011;7458;49.002;8.472;2023-12-22T05:53:21;4.50;;;3.15;;
14734;SDS011;7458;49.002;8.472;2023-12-22T05:55:47;7.55;;;2.72;;
14734;SDS011;7458;49.002;8.472;2023-12-22T05:58:13;8.18;;;2.55;;
14734;SDS011;7458;49.002;8.472;2023-12-22T06:00:40;9.43;;;2.65;;
14734;SDS011;7458;49.002;8.472;2023-12-22T06:03:05;9.18;;;2.90;;
14734;SDS011;7458;49.002;8.472;2023-12-22T06:05:31;13.30;;;3.75;;
14734;SDS011;7458;49.002;8.472;2023-12-22T06:07:57;5.22;;;2.25;;
14734;SDS011;7458;49.002;8.472;2023-12-22T06:10:22;9.38;;;2.90;;
14734;SDS011;7458;49.002;8.472;2023-12-22T06:12:48;8.82;;;4.13;;
14734;SDS011;7458;49.002;8.472;2023-12-22T06:15:14;11.30;;;3.00;;
14734;SDS011;7458;49.002;8.472;2023-12-22T06:17:41;9.85;;;3.05;;
14734;SDS011;7458;49.002;8.472;2023-12-22T06:20:07;12.25;;;4.15;;
14734;SDS011;7458;49.002;8.472;2023-12-22T06:22:33;6.45;;;2.83;;
14734;SDS011;7458;49.002;8.472;2023-12-22T06:24:59;5.05;;;2.65;;
14734;SDS011;7458;49.002;8.472;2023-12-22T06:27:28;9.75;;;4.63;;
14734;SDS011;7458;49.002;8.472;2023-12-22T06:29:54;10.32;;;3.03;;
14734;SDS011;7458;49.002;8.472;2023-12-22T06:32:20;9.95;;;3.08;;
14734;SDS011;7458;49.002;8.472;2023-12-22T06:34:46;7.25;;;3.53;;
14734;SDS011;7458;49.002;8.472;2023-12-22T06:37:12;13.95;;;4.22;;
14734;SDS011;7458;49.002;8.472;2023-12-22T06:39:38;4.88;;;2.50;;
14734;SDS011;7458;49.002;8.472;2023-12-22T06:42:05;5.32;;;2.08;;
14734;SDS011;7458;49.002;8.472;2023-12-22T06:44:35;9.40;;;3.40;;
14734;SDS011;7458;49.002;8.472;2023-12-22T06:47:02;9.98;;;4.10;;
14734;SDS011;7458;49.002;8.472;2023-12-22T06:49:28;9.27;;;3.67;;
14734;SDS011;7458;49.002;8.472;2023-12-22T06:51:54;7.57;;;3.35;;
14734;SDS011;7458;49.002;8.472;2023-12-22T06:54:20;7.63;;;2.67;;
14734;SDS011;7458;49.002;8.472;2023-12-22T06:56:46;4.00;;;2.13;;
14734;SDS011;7458;49.002;8.472;2023-12-22T06:59:13;9.65;;;3.78;;
14734;SDS011;7458;49.002;8.472;2023-12-22T07:01:39;10.68;;;3.83;;
14734;SDS011;7458;49.002;8.472;2023-12-22T07:04:05;11.10;;;2.95;;
14734;SDS011;7458;49.002;8.472;2023-12-22T07:06:32;9.77;;;3.08;;
14734;SDS011;7458;49.002;8.472;2023-12-22T07:11:40;12.98;;;4.70;;
14734;SDS011;7458;49.002;8.472;2023-12-22T07:14:08;16.25;;;4.10;;
14734;SDS011;7458;49.002;8.472;2023-12-22T07:16:35;7.00;;;3.63;;
14734;SDS011;7458;49.002;8.472;2023-12-22T07:19:02;8.98;;;4.10;;
14734;SDS011;7458;49.002;8.472;2023-12-22T07:21:29;12.60;;;4.10;;
14734;SDS011;7458;49.002;8.472;2023-12-22T07:23:55;14.55;;;3.70;;
14734;SDS011;7458;49.002;8.472;2023-12-22T07:26:23;11.07;;;3.95;;
14734;SDS011;7458;49.002;8.472;2023-12-22T07:28:51;7.28;;;3.38;;
14734;SDS011;7458;49.002;8.472;2023-12-22T07:31:18;8.40;;;3.08;;
14734;SDS011;7458;49.002;8.472;2023-12-22T07:33:44;8.15;;;4.22;;
14734;SDS011;7458;49.002;8.472;2023-12-22T07:36:10;17.80;;;6.65;;
14734;SDS011;7458;49.002;8.472;2023-12-22T07:38:37;10.32;;;3.65;;
14734;SDS011;7458;49.002;8.472;2023-12-22T07:41:06;10.85;;;3.65;;
14734;SDS011;7458;49.002;8.472;2023-12-22T07:43:32;7.72;;;4.38;;
14734;SDS011;7458;49.002;8.472;2023-12-22T07:45:59;6.32;;;4.35;;
14734;SDS011;7458;49.002;8.472;2023-12-22T07:48:25;11.60;;;4.45;;
14734;SDS011;7458;49.002;8.472;2023-12-22T07:50:51;14.10;;;4.05;;
14734;SDS011;7458;49.002;8.472;2023-12-22T07:53:17;10.20;;;4.47;;
14734;SDS011;7458;49.002;8.472;2023-12-22T07:55:44;15.23;;;5.18;;
14734;SDS011;7458;49.002;8.472;2023-12-22T07:58:11;10.73;;;4.38;;
14734;SDS011;7458;49.002;8.472;2023-12-22T08:00:38;9.73;;;4.18;;
14734;SDS011;7458;49.002;8.472;2023-12-22T08:03:05;6.38;;;3.90;;
14734;SDS011;7458;49.002;8.472;2023-12-22T08:05:31;15.98;;;4.57;;
14734;SDS011;7458;49.002;8.472;2023-12-22T08:07:58;12.07;;;4.40;;
14734;SDS011;7458;49.002;8.472;2023-12-22T08:10:24;13.48;;;4.57;;
14734;SDS011;7458;49.002;8.472;2023-12-22T08:12:52;23.80;;;6.00;;
14734;SDS011;7458;49.002;8.472;2023-12-22T08:15:21;17.95;;;4.90;;
14734;SDS011;7458;49.002;8.472;2023-12-22T08:17:48;17.67;;;4.47;;
14734;SDS011;7458;49.002;8.472;2023-12-22T08:20:18;12.80;;;3.28;;
14734;SDS011;7458;49.002;8.472;2023-12-22T08:22:47;22.27;;;4.97;;
14734;SDS011;7458;49.002;8.472;2023-12-22T08:25:14;11.60;;;4.35;;
14734;SDS011;7458;49.002;8.472;2023-12-22T08:27:41;12.82;;;5.63;;
14734;SDS011;7458;49.002;8.472;2023-12-22T08:30:08;13.40;;;4.72;;
14734;SDS011;7458;49.002;8.472;2023-12-22T08:32:35;14.20;;;4.75;;
14734;SDS011;7458;49.002;8.472;2023-12-22T08:35:01;13.10;;;5.30;;
14734;SDS011;7458;49.002;8.472;2023-12-22T08:37:29;24.67;;;5.78;;
14734;SDS011;7458;49.002;8.472;2023-12-22T08:39:55;12.80;;;4.65;;
14734;SDS011;7458;49.002;8.472;2023-12-22T08:42:22;6.07;;;3.20;;
14734;SDS011;7458;49.002;8.472;2023-12-22T08:44:49;8.55;;;4.18;;
14734;SDS011;7458;49.002;8.472;2023-12-22T08:47:16;18.30;;;7.22;;
14734;SDS011;7458;49.002;8.472;2023-12-22T08:49:42;20.38;;;4.93;;
14734;SDS011;7458;49.002;8.472;2023-12-22T08:52:08;11.55;;;4.60;;
14734;SDS011;7458;49.002;8.472;2023-12-22T08:54:34;12.20;;;4.90;;
14734;SDS011;7458;49.002;8.472;2023-12-22T08:57:03;11.88;;;4.90;;
14734;SDS011;7458;49.002;8.472;2023-12-22T08:59:29;24.83;;;4.18;;
14734;SDS011;7458;49.002;8.472;2023-12-22T09:01:55;16.85;;;4.60;;
14734;SDS011;7458;49.002;8.472;2023-12-22T09:04:21;14.40;;;5.43;;
14734;SDS011;7458;49.002;8.472;2023-12-22T09:06:50;16.02;;;5.53;;
14734;SDS011;7458;49.002;8.472;2023-12-22T09:09:16;12.32;;;5.53;;
14734;SDS011;7458;49.002;8.472;2023-12-22T09:11:43;11.93;;;3.83;;
14734;SDS011;7458;49.002;8.472;2023-12-22T09:14:09;11.02;;;3.80;;
14734;SDS011;7458;49.002;8.472;2023-12-22T09:16:36;14.80;;;4.75;;
14734;SDS011;7458;49.002;8.472;2023-12-22T09:19:03;16.17;;;5.07;;
14734;SDS011;7458;49.002;8.472;2023-12-22T09:21:29;12.90;;;3.70;;
14734;SDS011;7458;49.002;8.472;2023-12-22T09:23:55;14.00;;;3.97;;
14734;SDS011;7458;49.002;8.472;2023-12-22T09:26:21;17.70;;;6.55;;
14734;SDS011;7458;49.002;8.472;2023-12-22T09:28:47;7.35;;;3.33;;
14734;SDS011;7458;49.002;8.472;2023-12-22T09:31:14;12.45;;;4.20;;
14734;SDS011;7458;49.002;8.472;2023-12-22T09:33:43;14.32;;;5.10;;
14734;SDS011;7458;49.002;8.472;2023-12-22T09:36:09;22.58;;;4.28;;
14734;SDS011;7458;49.002;8.472;2023-12-22T09:38:35;12.52;;;4.97;;
14734;SDS011;7458;49.002;8.472;2023-12-22T09:41:01;12.93;;;5.03;;
14734;SDS011;7458;49.002;8.472;2023-12-22T09:43:27;10.13;;;3.47;;
14734;SDS011;7458;49.002;8.472;2023-12-22T09:45:57;12.88;;;4.45;;
14734;SDS011;7458;49.002;8.472;2023-12-22T09:48:24;11.35;;;4.93;;
14734;SDS011;7458;49.002;8.472;2023-12-22T09:50:54;16.70;;;4.75;;
14734;SDS011;7458;49.002;8.472;2023-12-22T09:53:21;22.08;;;4.63;;
14734;SDS011;7458;49.002;8.472;2023-12-22T09:55:49;24.95;;;5.38;;
14734;SDS011;7458;49.002;8.472;2023-12-22T09:58:15;15.18;;;4.20;;
14734;SDS011;7458;49.002;8.472;2023-12-22T10:00:42;23.48;;;6.35;;
14734;SDS011;7458;49.002;8.472;2023-12-22T10:03:09;5.53;;;3.75;;
14734;SDS011;7458;49.002;8.472;2023-12-22T10:05:37;9.73;;;3.90;;
14734;SDS011;7458;49.002;8.472;2023-12-22T10:08:06;7.03;;;3.42;;
14734;SDS011;7458;49.002;8.472;2023-12-22T10:10:40;13.18;;;5.30;;
14734;SDS011;7458;49.002;8.472;2023-12-22T10:13:08;14.25;;;4.35;;
14734;SDS011;7458;49.002;8.472;2023-12-22T10:15:38;11.02;;;4.50;;
14734;SDS011;7458;49.002;8.472;2023-12-22T10:18:08;14.30;;;4.85;;
14734;SDS011;7458;49.002;8.472;2023-12-22T10:20:35;8.35;;;3.88;;
14734;SDS011;7458;49.002;8.472;2023-12-22T10:23:01;17.35;;;5.82;;
14734;SDS011;7458;49.002;8.472;2023-12-22T10:25:28;9.82;;;4.10;;
14734;SDS011;7458;49.002;8.472;2023-12-22T10:27:54;14.73;;;5.88;;
14734;SDS011;7458;49.002;8.472;2023-12-22T10:30:21;10.55;;;4.22;;
14734;SDS011;7458;49.002;8.472;2023-12-22T10:32:50;12.43;;;4.43;;
14734;SDS011;7458;49.002;8.472;2023-12-22T10:35:22;9.68;;;4.03;;
14734;SDS011;7458;49.002;8.472;2023-12-22T10:37:48;11.80;;;5.72;;
14734;SDS011;7458;49.002;8.472;2023-12-22T10:40:18;10.63;;;5.25;;
14734;SDS011;7458;49.002;8.472;2023-12-22T10:42:44;20.98;;;6.18;;
14734;SDS011;7458;49.002;8.472;2023-12-22T10:45:11;20.15;;;5.55;;
14734;SDS011;7458;49.002;8.472;2023-12-22T10:47:38;15.38;;;5.53;;
14734;SDS011;7458;49.002;8.472;2023-12-22T10:50:05;10.98;;;4.57;;
14734;SDS011;7458;49.002;8.472;2023-12-22T10:52:32;10.90;;;5.57;;
14734;SDS011;7458;49.002;8.472;2023-12-22T10:54:59;12.68;;;5.22;;
14734;SDS011;7458;49.002;8.472;2023-12-22T10:57:26;9.80;;;5.10;;
14734;SDS011;7458;49.002;8.472;2023-12-22T10:59:56;10.85;;;4.30;;
14734;SDS011;7458;49.002;8.472;2023-12-22T11:02:23;12.27;;;5.90;;
14734;SDS011;7458;49.002;8.472;2023-12-22T11:05:04;23.80;;;5.35;;
14734;SDS011;7458;49.002;8.472;2023-12-22T11:07:32;7.93;;;3.28;;
14734;SDS011;7458;49.002;8.472;2023-12-22T11:10:07;10.90;;;4.53;;
14734;SDS011;7458;49.002;8.472;2023-12-22T11:12:36;11.00;;;3.80;;
14734;SDS011;7458;49.002;8.472;2023-12-22T11:15:03;13.75;;;3.88;;
14734;SDS011;7458;49.002;8.472;2023-12-22T11:17:34;9.38;;;3.90;;
14734;SDS011;7458;49.002;8.472;2023-12-22T11:20:04;17.02;;;4.20;;
14734;SDS011;7458;49.002;8.472;2023-12-22T11:22:34;10.35;;;3.33;;
14734;SDS011;7458;49.002;8.472;2023-12-22T11:25:02;11.95;;;4.07;;
14734;SDS011;7458;49.002;8.472;2023-12-22T11:27:29;4.93;;;3.05;;
14734;SDS011;7458;49.002;8.472;2023-12-22T11:29:59;10.85;;;4.50;;
14734;SDS011;7458;49.002;8.472;2023-12-22T11:32:26;8.00;;;3.20;;
14734;SDS011;7458;49.002;8.472;2023-12-22T11:34:54;21.98;;;4.63;;
14734;SDS011;7458;49.002;8.472;2023-12-22T11:37:24;17.45;;;3.60;;
14734;SDS011;7458;49.002;8.472;2023-12-22T11:39:50;11.00;;;4.28;;
14734;SDS011;7458;49.002;8.472;2023-12-22T11:42:25;6.88;;;3.40;;
14734;SDS011;7458;49.002;8.472;2023-12-22T11:44:56;6.68;;;3.67;;
14734;SDS011;7458;49.002;8.472;2023-12-22T11:47:23;13.85;;;3.15;;
14734;SDS011;7458;49.002;8.472;2023-12-22T11:49:50;6.28;;;3.38;;
14734;SDS011;7458;49.002;8.472;2023-12-22T11:52:17;5.55;;;4.13;;
14734;SDS011;7458;49.002;8.472;2023-12-22T11:54:50;6.40;;;3.30;;
14734;SDS011;7458;49.002;8.472;2023-12-22T12:02:34;7.45;;;2.90;;
14734;SDS011;7458;49.002;8.472;2023-12-22T12:05:01;6.10;;;2.78;;
14734;SDS011;7458;49.002;8.472;2023-12-22T12:07:41;4.00;;;2.83;;
14734;SDS011;7458;49.002;8.472;2023-12-22T12:13:04;3.57;;;2.30;;
14734;SDS011;7458;49.002;8.472;2023-12-22T12:15:30;5.47;;;2.75;;
14734;SDS011;7458;49.002;8.472;2023-12-22T12:18:00;4.65;;;3.03;;
14734;SDS011;7458;49.002;8.472;2023-12-22T12:20:27;4.95;;;2.47;;
14734;SDS011;7458;49.002;8.472;2023-12-22T12:22:56;12.55;;;4.40;;
14734;SDS011;7458;49.002;8.472;2023-12-22T12:25:23;7.15;;;3.00;;
14734;SDS011;7458;49.002;8.472;2023-12-22T12:30:33;10.63;;;4.00;;
14734;SDS011;7458;49.002;8.472;2023-12-22T12:33:06;7.35;;;3.05;;
14734;SDS011;7458;49.002;8.472;2023-12-22T12:35:33;8.02;;;3.05;;
14734;SDS011;7458;49.002;8.472;2023-12-22T12:37:59;6.63;;;3.28;;
14734;SDS011;7458;49.002;8.472;2023-12-22T12:40:28;4.97;;;3.20;;
14734;SDS011;7458;49.002;8.472;2023-12-22T12:42:55;7.20;;;3.55;;
14734;SDS011;7458;49.002;8.472;2023-12-22T12:45:22;6.15;;;3.22;;
14734;SDS011;7458;49.002;8.472;2023-12-22T12:47:55;6.38;;;2.90;;
14734;SDS011;7458;49.002;8.472;2023-12-22T12:50:26;8.60;;;2.90;;
14734;SDS011;7458;49.002;8.472;2023-12-22T12:52:54;5.38;;;3.88;;
14734;SDS011;7458;49.002;8.472;2023-12-22T12:55:24;9.73;;;3.60;;
14734;SDS011;7458;49.002;8.472;2023-12-22T13:00:27;5.25;;;2.75;;
14734;SDS011;7458;49.002;8.472;2023-12-22T13:02:56;3.92;;;2.58;;
14734;SDS011;7458;49.002;8.472;2023-12-22T13:05:28;5.43;;;3.10;;
14734;SDS011;7458;49.002;8.472;2023-12-22T13:08:05;6.80;;;2.53;;
14734;SDS011;7458;49.002;8.472;2023-12-22T13:10:36;6.38;;;2.00;;
14734;SDS011;7458;49.002;8.472;2023-12-22T13:13:03;8.45;;;3.25;;
14734;SDS011;7458;49.002;8.472;2023-12-22T13:15:29;3.25;;;1.70;;
14734;SDS011;7458;49.002;8.472;2023-12-22T13:17:55;4.43;;;1.65;;
14734;SDS011;7458;49.002;8.472;2023-12-22T13:20:22;2.28;;;1.65;;
14734;SDS011;7458;49.002;8.472;2023-12-22T13:22:48;3.08;;;1.85;;
14734;SDS011;7458;49.002;8.472;2023-12-22T13:25:15;2.22;;;1.33;;
14734;SDS011;7458;49.002;8.472;2023-12-22T13:27:45;3.08;;;1.70;;
14734;SDS011;7458;49.002;8.472;2023-12-22T13:30:13;2.13;;;1.73;;
14734;SDS011;7458;49.002;8.472;2023-12-22T13:33:01;2.70;;;2.22;;
14734;SDS011;7458;49.002;8.472;2023-12-22T13:35:27;2.47;;;1.65;;
14734;SDS011;7458;49.002;8.472;2023-12-22T13:37:54;2.47;;;1.65;;
14734;SDS011;7458;49.002;8.472;2023-12-22T13:40:21;1.27;;;1.00;;
14734;SDS011;7458;49.002;8.472;2023-12-22T13:42:57;3.03;;;1.23;;
14734;SDS011;7458;49.002;8.472;2023-12-22T13:45:26;3.08;;;1.48;;
14734;SDS011;7458;49.002;8.472;2023-12-22T13:47:52;1.25;;;0.85;;
14734;SDS011;7458;49.002;8.472;2023-12-22T13:50:18;1.35;;;1.20;;
14734;SDS011;7458;49.002;8.472;2023-12-22T13:52:48;2.88;;;1.50;;
14734;SDS011;7458;49.002;8.472;2023-12-22T13:55:18;2.03;;;1.55;;
14734;SDS011;7458;49.002;8.472;2023-12-22T13:57:47;2.75;;;1.55;;
14734;SDS011;7458;49.002;8.472;2023-12-22T14:02:46;2.20;;;1.27;;
14734;SDS011;7458;49.002;8.472;2023-12-22T14:05:14;4.72;;;1.77;;
14734;SDS011;7458;49.002;8.472;2023-12-22T14:07:41;1.42;;;1.33;;
14734;SDS011;7458;49.002;8.472;2023-12-22T14:10:09;1.05;;;0.95;;
14734;SDS011;7458;49.002;8.472;2023-12-22T14:12:36;1.63;;;1.10;;
14734;SDS011;7458;49.002;8.472;2023-12-22T14:15:07;7.00;;;1.60;;
14734;SDS011;7458;49.002;8.472;2023-12-22T14:17:34;2.42;;;1.23;;
14734;SDS011;7458;49.002;8.472;2023-12-22T14:20:01;0.95;;;0.82;;
14734;SDS011;7458;49.002;8.472;2023-12-22T14:22:29;1.55;;;1.30;;
14734;SDS011;7458;49.002;8.472;2023-12-22T14:24:56;1.10;;;0.88;;
14734;SDS011;7458;49.002;8.472;2023-12-22T14:27:32;1.30;;;0.93;;
14734;SDS011;7458;49.002;8.472;2023-12-22T14:29:59;2.55;;;0.82;;
14734;SDS011;7458;49.002;8.472;2023-12-22T14:32:25;2.05;;;1.40;;
14734;SDS011;7458;49.002;8.472;2023-12-22T14:34:52;4.55;;;1.77;;
14734;SDS011;7458;49.002;8.472;2023-12-22T14:37:18;2.47;;;1.45;;
14734;SDS011;7458;49.002;8.472;2023-12-22T14:39:45;2.15;;;1.60;;
14734;SDS011;7458;49.002;8.472;2023-12-22T14:42:11;2.63;;;1.40;;
14734;SDS011;7458;49.002;8.472;2023-12-22T14:44:38;1.60;;;1.35;;
14734;SDS011;7458;49.002;8.472;2023-12-22T14:47:04;2.58;;;1.92;;
14734;SDS011;7458;49.002;8.472;2023-12-22T14:49:31;2.50;;;1.02;;
14734;SDS011;7458;49.002;8.472;2023-12-22T14:51:57;1.33;;;0.80;;
14734;SDS011;7458;49.002;8.472;2023-12-22T14:54:25;1.35;;;1.02;;
14734;SDS011;7458;49.002;8.472;2023-12-22T14:56:51;1.08;;;0.80;;
14734;SDS011;7458;49.002;8.472;2023-12-22T14:59:17;1.85;;;1.35;;
14734;SDS011;7458;49.002;8.472;2023-12-22T15:01:44;0.70;;;0.70;;
14734;SDS011;7458;49.002;8.472;2023-12-22T15:04:10;1.20;;;0.90;;
14734;SDS011;7458;49.002;8.472;2023-12-22T15:06:39;2.72;;;1.98;;
14734;SDS011;7458;49.002;8.472;2023-12-22T15:09:08;2.85;;;1.63;;
14734;SDS011;7458;49.002;8.472;2023-12-22T15:11:40;2.63;;;1.10;;
14734;SDS011;7458;49.002;8.472;2023-12-22T15:14:10;3.25;;;1.42;;
14734;SDS011;7458;49.002;8.472;2023-12-22T15:16:43;2.65;;;1.77;;
14734;SDS011;7458;49.002;8.472;2023-12-22T15:19:12;1.20;;;0.93;;